Time;durP1;ratioP1;P1;durP2;ratioP2;P2;SDS_P1;SDS_P2;PMS_P1;PMS_P2;Temp;Humidity;BMP_temperature;BMP_pressure;BME280_temperature;BME280_humidity;BME280_pressure;Samples;Min_cycle;Max_cycle;Signal;HPM_P1;HPM_P2
2022/04/14 00:01:56;;;;;;;9.65;6.15;;;;;;;16.29;100.00;99439.06;4975382;28;20513;-86
2022/04/14 00:04:24;;;;;;;10.32;6.57;;;;;;;16.17;100.00;99437.41;4975889;28;20211;-87
2022/04/14 00:06:51;;;;;;;10.27;6.68;;;;;;;16.22;100.00;99433.28;4975548;28;20195;-87
2022/04/14 00:09:18;;;;;;;11.88;7.15;;;;;;;16.16;100.00;99438.38;4975665;28;21006;-87
2022/04/14 00:11:44;;;;;;;12.75;7.25;;;;;;;16.14;100.00;99429.47;4975257;28;20197;-87
2022/04/14 00:14:11;;;;;;;12.45;7.18;;;;;;;16.27;100.00;99436.47;4975206;28;20200;-87
2022/04/14 00:16:37;;;;;;;12.65;8.75;;;;;;;16.35;100.00;99424.97;4975049;28;20206;-87
2022/04/14 00:19:04;;;;;;;16.50;6.65;;;;;;;16.22;100.00;99429.72;4975114;28;20644;-86
2022/04/14 00:21:32;;;;;;;12.60;7.78;;;;;;;16.21;100.00;99433.41;4975171;28;20675;-87
2022/04/14 00:23:59;;;;;;;11.75;7.10;;;;;;;16.28;100.00;99434.63;4975381;28;20212;-87
2022/04/14 00:26:25;;;;;;;11.75;6.93;;;;;;;16.27;100.00;99435.63;4974891;28;20189;-87
2022/04/14 00:28:52;;;;;;;10.10;7.78;;;;;;;16.18;100.00;99436.38;4974997;28;20215;-87
2022/04/14 00:31:18;;;;;;;10.95;6.90;;;;;;;16.22;100.00;99433.28;4974701;28;20188;-87
2022/04/14 00:33:45;;;;;;;11.38;8.25;;;;;;;16.42;100.00;99434.31;4974622;28;20191;-87
2022/04/14 00:36:12;;;;;;;13.13;7.43;;;;;;;16.49;100.00;99444.69;4974863;28;20205;-88
2022/04/14 00:38:40;;;;;;;11.50;8.43;;;;;;;16.32;100.00;99446.09;4974538;28;20649;-88
2022/04/14 00:41:06;;;;;;;16.23;9.10;;;;;;;16.23;100.00;99442.28;4974561;28;20200;-88
2022/04/14 00:43:34;;;;;;;17.48;9.63;;;;;;;16.15;100.00;99451.09;4974670;28;20219;-87
2022/04/14 00:46:02;;;;;;;16.00;9.50;;;;;;;16.07;100.00;99447.28;4974811;28;20193;-86
2022/04/14 00:48:30;;;;;;;10.35;8.63;;;;;;;16.01;100.00;99441.38;4974312;28;20202;-87
2022/04/14 00:50:57;;;;;;;10.70;9.57;;;;;;;16.08;100.00;99451.72;4975080;28;20977;-87
2022/04/14 00:53:24;;;;;;;15.95;10.90;;;;;;;16.03;100.00;99450.28;4974822;28;20192;-87
2022/04/14 00:55:52;;;;;;;16.15;11.60;;;;;;;15.90;100.00;99452.28;4995168;28;20230;-86
2022/04/14 00:58:20;;;;;;;15.50;12.40;;;;;;;15.87;100.00;99452.50;5013300;28;20193;-86
2022/04/14 01:00:46;;;;;;;15.60;12.32;;;;;;;16.04;100.00;99448.41;5012953;28;20197;-86
2022/04/14 01:03:14;;;;;;;20.05;12.23;;;;;;;16.01;100.00;99454.97;5013372;28;20699;-87
2022/04/14 01:05:42;;;;;;;21.20;13.07;;;;;;;15.99;100.00;99465.09;5013281;28;20278;-86
2022/04/14 01:08:09;;;;;;;18.20;14.13;;;;;;;15.91;100.00;99466.72;5013190;28;20206;-86
2022/04/14 01:10:38;;;;;;;21.08;15.15;;;;;;;15.88;100.00;99470.53;5013268;28;20190;-87
2022/04/14 01:13:06;;;;;;;17.73;13.65;;;;;;;16.03;100.00;99471.13;5013149;28;20611;-87
2022/04/14 01:15:33;;;;;;;23.98;13.73;;;;;;;16.01;100.00;99467.69;5012911;28;20213;-87
2022/04/14 01:18:00;;;;;;;17.65;12.73;;;;;;;15.95;100.00;99463.63;5012812;28;20183;-87
2022/04/14 01:20:26;;;;;;;14.55;9.63;;;;;;;15.88;100.00;99473.25;5013237;28;20684;-86
2022/04/14 01:22:57;;;;;;;14.48;10.50;;;;;;;15.90;100.00;99460.41;5012995;28;20575;-86
2022/04/14 01:25:26;;;;;;;11.88;8.85;;;;;;;16.00;100.00;99471.38;5012779;28;20183;-87
2022/04/14 01:27:53;;;;;;;14.63;11.65;;;;;;;15.92;100.00;99485.59;5012950;28;20592;-87
2022/04/14 01:30:20;;;;;;;19.05;12.32;;;;;;;15.94;100.00;99486.34;5013020;28;20205;-87
2022/04/14 01:32:46;;;;;;;16.17;11.80;;;;;;;15.96;100.00;99489.75;5012515;28;20190;-87
2022/04/14 01:35:13;;;;;;;16.85;12.02;;;;;;;16.16;100.00;99489.97;5012493;28;20210;-87
2022/04/14 01:37:40;;;;;;;14.57;11.65;;;;;;;16.25;100.00;99491.94;5012863;28;20189;-87
2022/04/14 01:40:08;;;;;;;15.35;10.80;;;;;;;16.17;100.00;99497.16;5012576;28;20275;-87
2022/04/14 01:42:36;;;;;;;15.35;11.07;;;;;;;16.13;100.00;99492.97;5012282;28;20288;-86
2022/04/14 01:45:04;;;;;;;17.50;11.48;;;;;;;16.14;100.00;99498.25;5012772;28;20196;-87
2022/04/14 01:47:30;;;;;;;19.83;11.38;;;;;;;16.20;100.00;99500.47;5012732;28;20183;-87
2022/04/14 01:49:57;;;;;;;20.58;11.57;;;;;;;16.08;100.00;99511.47;5012461;28;20234;-86
2022/04/14 01:52:24;;;;;;;17.60;12.50;;;;;;;15.88;100.00;99508.56;5012172;28;20274;-87
2022/04/14 01:54:50;;;;;;;14.82;12.20;;;;;;;15.88;100.00;99513.97;5012259;28;20278;-87
2022/04/14 01:57:17;;;;;;;15.88;12.13;;;;;;;15.87;100.00;99514.09;5012194;28;20222;-88
2022/04/14 01:59:45;;;;;;;15.00;11.25;;;;;;;15.86;100.00;99518.66;5011362;28;20213;-87
2022/04/14 02:02:12;;;;;;;15.40;11.90;;;;;;;15.84;100.00;99521.50;5012120;28;20283;-87
2022/04/14 02:04:38;;;;;;;18.27;12.57;;;;;;;15.75;100.00;99518.69;5012524;28;20193;-87
2022/04/14 02:07:05;;;;;;;14.60;12.98;;;;;;;15.76;100.00;99515.84;5012068;28;20364;-87
2022/04/14 02:09:32;;;;;;;16.73;12.98;;;;;;;15.69;100.00;99519.13;5011253;28;20209;-86
2022/04/14 02:11:58;;;;;;;19.52;13.00;;;;;;;15.84;100.00;99515.22;5011173;28;20187;-86
2022/04/14 02:14:25;;;;;;;17.08;12.73;;;;;;;15.85;100.00;99511.50;5011897;28;20202;-87
2022/04/14 02:16:53;;;;;;;17.60;13.50;;;;;;;16.01;100.00;99511.13;5011950;28;20194;-87
2022/04/14 02:19:20;;;;;;;17.83;13.48;;;;;;;16.00;100.00;99506.69;5012204;28;20187;-88
2022/04/14 02:21:46;;;;;;;14.75;12.75;;;;;;;15.87;100.00;99511.38;5011914;28;20293;-87
2022/04/14 02:24:13;;;;;;;21.58;16.08;;;;;;;15.79;100.00;99514.72;5011699;28;20207;-87
2022/04/14 02:26:39;;;;;;;15.50;13.48;;;;;;;15.95;100.00;99519.78;5012029;28;20202;-86
2022/04/14 02:29:06;;;;;;;19.90;14.30;;;;;;;15.92;100.00;99523.63;5011706;28;20281;-87
2022/04/14 02:31:33;;;;;;;16.10;14.40;;;;;;;15.84;100.00;99518.78;5012126;28;20282;-87
2022/04/14 02:34:01;;;;;;;18.33;15.98;;;;;;;15.64;100.00;99514.94;5012003;28;20281;-87
2022/04/14 02:36:27;;;;;;;17.95;15.45;;;;;;;15.80;100.00;99521.88;5012025;28;20190;-87
2022/04/14 02:38:54;;;;;;;19.15;17.02;;;;;;;15.55;100.00;99528.38;5011611;28;20189;-87
2022/04/14 02:41:20;;;;;;;23.20;15.88;;;;;;;15.48;100.00;99524.44;5011601;28;20209;-86
2022/04/14 02:43:47;;;;;;;19.75;17.23;;;;;;;15.48;100.00;99528.00;5011891;28;20203;-86
2022/04/14 02:46:14;;;;;;;18.85;15.93;;;;;;;15.56;100.00;99522.84;5011850;28;20644;-87
2022/04/14 02:48:40;;;;;;;22.35;17.40;;;;;;;15.50;100.00;99526.03;5011469;28;20198;-86
2022/04/14 02:51:09;;;;;;;17.65;15.30;;;;;;;15.42;100.00;99523.06;5012048;28;20203;-87
2022/04/14 02:53:35;;;;;;;21.95;16.40;;;;;;;15.50;100.00;99523.31;5011832;28;20228;-86
2022/04/14 02:56:02;;;;;;;18.25;15.15;;;;;;;15.45;100.00;99527.41;5011507;28;20238;-87
2022/04/14 02:58:29;;;;;;;23.45;16.05;;;;;;;15.55;100.00;99521.09;5011761;28;20676;-86
2022/04/14 03:00:55;;;;;;;16.77;11.80;;;;;;;15.45;100.00;99521.97;5011718;28;20202;-87
2022/04/14 03:03:23;;;;;;;21.50;17.90;;;;;;;15.48;100.00;99519.00;5011317;28;20229;-86
2022/04/14 03:05:50;;;;;;;18.08;14.95;;;;;;;15.44;100.00;99515.66;5011628;28;20618;-87
2022/04/14 03:08:18;;;;;;;18.48;14.90;;;;;;;15.51;100.00;99516.03;5011705;28;20198;-87
2022/04/14 03:10:45;;;;;;;29.35;17.20;;;;;;;15.58;100.00;99517.28;5011328;28;20202;-87
2022/04/14 03:13:11;;;;;;;30.80;19.70;;;;;;;15.64;100.00;99516.78;5011465;28;20187;-87
2022/04/14 03:15:38;;;;;;;21.65;17.40;;;;;;;15.73;100.00;99515.22;5011354;28;20217;-87
2022/04/14 03:18:05;;;;;;;19.42;16.52;;;;;;;15.57;100.00;99519.13;5011318;28;20191;-87
2022/04/14 03:20:32;;;;;;;17.08;14.50;;;;;;;15.48;100.00;99522.59;5011720;28;20191;-87
2022/04/14 03:23:00;;;;;;;24.55;15.15;;;;;;;15.49;100.00;99528.88;5011696;28;20700;-87
2022/04/14 03:25:28;;;;;;;21.30;14.57;;;;;;;15.43;100.00;99530.22;5015336;28;20272;-87
2022/04/14 03:27:54;;;;;;;15.52;12.32;;;;;;;15.33;100.00;99526.50;5015182;28;20624;-86
2022/04/14 03:30:21;;;;;;;18.38;11.75;;;;;;;15.23;100.00;99526.38;5014917;28;20187;-87
2022/04/14 03:32:48;;;;;;;15.18;11.93;;;;;;;15.01;100.00;99524.47;5015031;28;20187;-87
2022/04/14 03:35:15;;;;;;;16.17;12.20;;;;;;;15.01;100.00;99514.50;5015168;28;20213;-87
2022/04/14 03:37:44;;;;;;;15.93;11.15;;;;;;;15.06;100.00;99524.13;5015305;28;20357;-87
2022/04/14 03:40:12;;;;;;;13.00;10.93;;;;;;;15.01;100.00;99519.03;5014915;28;20183;-87
2022/04/14 03:42:40;;;;;;;12.93;11.38;;;;;;;15.00;100.00;99522.75;5015054;28;20203;-87
2022/04/14 03:45:07;;;;;;;16.55;12.32;;;;;;;15.16;100.00;99517.84;5015034;28;20217;-87
2022/04/14 03:47:34;;;;;;;17.27;13.45;;;;;;;15.15;100.00;99523.38;5014816;28;20191;-88
2022/04/14 03:50:01;;;;;;;16.52;13.05;;;;;;;14.84;100.00;99527.66;5015140;28;20205;-87
2022/04/14 03:52:27;;;;;;;19.45;13.55;;;;;;;14.89;100.00;99522.72;5015002;28;20193;-87
2022/04/14 03:54:54;;;;;;;17.70;14.52;;;;;;;14.83;100.00;99525.91;5015216;28;20719;-86
2022/04/14 03:57:21;;;;;;;18.65;13.95;;;;;;;14.74;100.00;99524.75;5014653;28;20179;-86
2022/04/14 03:59:49;;;;;;;18.85;13.95;;;;;;;14.76;100.00;99529.06;5014395;28;20298;-89
2022/04/14 04:02:15;;;;;;;23.05;16.30;;;;;;;14.93;100.00;99526.94;5015129;28;20681;-87
2022/04/14 04:04:42;;;;;;;23.17;16.55;;;;;;;14.94;100.00;99528.66;5014589;28;20210;-87
2022/04/14 04:07:08;;;;;;;22.40;15.85;;;;;;;14.98;100.00;99525.56;5014285;28;20206;-88
2022/04/14 04:09:36;;;;;;;25.77;18.83;;;;;;;14.97;100.00;99523.88;5014550;28;20635;-86
2022/04/14 04:12:03;;;;;;;21.00;17.65;;;;;;;15.10;100.00;99531.88;5014383;28;20209;-87
2022/04/14 04:14:29;;;;;;;19.42;16.75;;;;;;;15.12;100.00;99539.91;5014135;28;20202;-87
2022/04/14 04:16:57;;;;;;;25.77;18.45;;;;;;;15.16;100.00;99539.56;5014472;28;20191;-86
2022/04/14 04:19:24;;;;;;;23.13;18.33;;;;;;;15.10;100.00;99539.16;5014329;28;20269;-88
2022/04/14 04:21:50;;;;;;;23.08;17.90;;;;;;;15.08;100.00;99543.84;5014062;28;20209;-87
2022/04/14 04:24:17;;;;;;;25.48;19.50;;;;;;;15.07;100.00;99544.84;5014281;28;20209;-88
2022/04/14 04:26:44;;;;;;;28.40;20.45;;;;;;;15.09;100.00;99542.88;5014196;28;20187;-87
2022/04/14 04:29:10;;;;;;;26.25;22.00;;;;;;;15.23;100.00;99545.38;5013869;28;20190;-86
2022/04/14 04:31:37;;;;;;;33.70;23.63;;;;;;;15.27;100.00;99544.16;5013761;28;20237;-87
2022/04/14 04:34:05;;;;;;;32.33;24.92;;;;;;;15.26;100.00;99549.69;5014060;28;20262;-87
2022/04/14 04:36:31;;;;;;;32.70;25.60;;;;;;;15.14;100.00;99543.38;5013209;28;20278;-87
2022/04/14 04:39:01;;;;;;;31.23;22.20;;;;;;;15.15;100.00;99550.50;5009075;28;20199;-81
2022/04/14 04:41:28;;;;;;;35.33;25.65;;;;;;;15.10;100.00;99555.44;5000003;28;20525;-81
2022/04/14 04:43:55;;;;;;;35.65;26.13;;;;;;;15.10;100.00;99548.16;4994200;28;20578;-81
2022/04/14 04:46:21;;;;;;;35.97;25.98;;;;;;;15.05;100.00;99555.78;5012906;28;20202;-82
2022/04/14 04:48:48;;;;;;;45.47;27.83;;;;;;;14.90;100.00;99551.56;5013616;28;20288;-82
2022/04/14 04:51:16;;;;;;;33.78;25.77;;;;;;;14.84;100.00;99560.16;5013939;28;20213;-82
2022/04/14 04:53:42;;;;;;;38.35;27.13;;;;;;;14.82;100.00;99562.13;5013713;28;20254;-82
2022/04/14 04:56:09;;;;;;;36.90;27.20;;;;;;;14.89;100.00;99572.38;5013267;28;20234;-82
2022/04/14 04:58:36;;;;;;;43.97;28.17;;;;;;;14.93;100.00;99565.75;4994051;28;20196;-82
2022/04/14 05:01:03;;;;;;;38.97;28.83;;;;;;;14.96;100.00;99565.50;5004635;28;20719;-81
2022/04/14 05:03:30;;;;;;;43.22;31.90;;;;;;;14.90;100.00;99570.53;5013218;28;20556;-81
2022/04/14 05:05:57;;;;;;;38.05;28.02;;;;;;;14.91;100.00;99573.13;5013471;28;20205;-81
2022/04/14 05:08:24;;;;;;;39.33;29.05;;;;;;;15.13;100.00;99561.50;5013211;28;20197;-82
2022/04/14 05:10:51;;;;;;;37.28;27.35;;;;;;;15.21;100.00;99572.59;5013105;28;20233;-82
2022/04/14 05:13:18;;;;;;;36.25;25.88;;;;;;;15.24;100.00;99576.94;5013247;28;20546;-81
2022/04/14 05:15:44;;;;;;;35.35;27.30;;;;;;;15.33;100.00;99573.50;5013297;28;20293;-82
2022/04/14 05:18:11;;;;;;;38.42;25.90;;;;;;;15.48;100.00;99586.84;5013283;28;20539;-82
2022/04/14 05:20:38;;;;;;;36.03;25.70;;;;;;;15.38;100.00;99582.16;5012224;28;20531;-82
2022/04/14 05:23:08;;;;;;;34.55;25.35;;;;;;;15.31;100.00;99577.31;4993240;28;20261;-81
2022/04/14 05:25:36;;;;;;;30.67;25.35;;;;;;;15.15;100.00;99583.06;5009034;28;20207;-81
2022/04/14 05:28:03;;;;;;;34.40;24.05;;;;;;;15.30;100.00;99587.28;5012954;28;20532;-81
2022/04/14 05:30:30;;;;;;;29.75;23.92;;;;;;;15.29;100.00;99587.44;5012992;28;20202;-81
2022/04/14 05:32:56;;;;;;;32.88;25.05;;;;;;;15.31;100.00;99596.28;5010630;28;20193;-82
2022/04/14 05:35:23;;;;;;;32.40;24.15;;;;;;;15.33;100.00;99597.94;4993124;28;20222;-81
2022/04/14 05:37:50;;;;;;;30.40;23.50;;;;;;;15.34;100.00;99599.63;4993244;28;20637;-82
2022/04/14 05:40:16;;;;;;;34.67;25.10;;;;;;;15.34;100.00;99596.94;4993231;28;20203;-82
2022/04/14 05:42:46;;;;;;;29.73;23.33;;;;;;;15.50;100.00;99607.44;5003013;28;20248;-81
2022/04/14 05:45:13;;;;;;;32.83;24.40;;;;;;;15.67;100.00;99603.41;5012513;28;20264;-81
2022/04/14 05:47:40;;;;;;;28.40;21.70;;;;;;;15.27;100.00;99613.81;5012465;28;20621;-81
2022/04/14 05:50:07;;;;;;;29.52;20.83;;;;;;;15.18;100.00;99607.25;5006644;28;20199;-81
2022/04/14 05:52:33;;;;;;;28.20;21.23;;;;;;;15.13;100.00;99602.19;4992529;28;20194;-80
2022/04/14 05:55:01;;;;;;;26.92;20.83;;;;;;;15.22;100.00;99606.03;4992231;28;20253;-81
2022/04/14 05:57:28;;;;;;;23.73;19.55;;;;;;;15.34;100.00;99607.78;4999146;28;20204;-81
2022/04/14 05:59:56;;;;;;;27.83;21.88;;;;;;;15.48;100.00;99606.69;5010658;28;20546;-82
2022/04/14 06:02:23;;;;;;;27.42;21.25;;;;;;;15.56;100.00;99604.25;5012022;28;20298;-81
2022/04/14 06:04:50;;;;;;;26.08;19.85;;;;;;;15.74;100.00;99620.13;5005730;28;20648;-81
2022/04/14 06:07:16;;;;;;;28.48;20.13;;;;;;;15.86;99.74;99613.69;5003555;28;20230;-81
2022/04/14 06:09:43;;;;;;;28.15;20.33;;;;;;;15.99;98.85;99617.16;4992629;28;20541;-81
2022/04/14 06:12:10;;;;;;;26.58;18.38;;;;;;;16.00;98.38;99613.44;4992070;28;20184;-80
2022/04/14 06:14:36;;;;;;;27.63;19.17;;;;;;;16.05;97.23;99627.53;4991839;28;20203;-81
2022/04/14 06:17:05;;;;;;;26.52;19.45;;;;;;;16.04;96.49;99620.38;4992360;28;20283;-83
2022/04/14 06:19:32;;;;;;;22.17;17.77;;;;;;;16.04;97.10;99628.50;4992560;28;20644;-80
2022/04/14 06:21:58;;;;;;;22.50;18.27;;;;;;;16.14;95.04;99627.75;4992136;28;20203;-82
2022/04/14 06:24:25;;;;;;;24.58;18.42;;;;;;;16.00;95.58;99628.88;4997446;28;20298;-81
2022/04/14 06:26:51;;;;;;;22.13;16.48;;;;;;;16.16;92.96;99634.81;4992041;28;20190;-81
2022/04/14 06:29:18;;;;;;;18.05;15.23;;;;;;;16.02;94.37;99633.19;5001494;28;20197;-83
2022/04/14 06:31:45;;;;;;;24.23;15.82;;;;;;;16.09;94.54;99638.16;5011432;28;20193;-81
2022/04/14 06:34:12;;;;;;;20.00;15.40;;;;;;;16.12;93.79;99627.03;5010580;28;20213;-81
2022/04/14 06:36:39;;;;;;;17.15;14.10;;;;;;;16.20;93.14;99639.00;5011669;28;20645;-81
2022/04/14 06:39:12;;;;;;;18.90;14.63;;;;;;;16.15;92.22;99641.22;5011688;28;20203;-80
2022/04/14 06:41:39;;;;;;;19.83;13.95;;;;;;;16.15;93.07;99638.53;5011310;28;20195;-81
2022/04/14 06:44:06;;;;;;;18.63;13.75;;;;;;;16.44;88.75;99638.00;5011205;28;20573;-82
2022/04/14 06:46:33;;;;;;;15.77;13.10;;;;;;;16.37;86.59;99639.47;5011647;28;20201;-81
2022/04/14 06:48:59;;;;;;;17.67;12.80;;;;;;;16.52;85.70;99643.66;5011858;28;20207;-82
2022/04/14 06:51:27;;;;;;;15.80;12.10;;;;;;;16.63;84.87;99640.91;5011414;28;20190;-82
2022/04/14 06:53:54;;;;;;;15.13;12.00;;;;;;;16.34;85.55;99645.16;5011997;28;20989;-81
2022/04/14 06:56:20;;;;;;;14.23;10.98;;;;;;;16.43;85.46;99636.25;5010611;28;20361;-82
2022/04/14 06:58:47;;;;;;;16.98;11.38;;;;;;;16.53;85.20;99647.25;4993807;28;20302;-81
2022/04/14 07:01:13;;;;;;;14.95;10.30;;;;;;;16.44;84.67;99651.59;4995908;28;20198;-81
2022/04/14 07:03:40;;;;;;;15.52;9.88;;;;;;;16.66;82.75;99639.81;4995447;28;20205;-81
2022/04/14 07:06:07;;;;;;;15.52;9.63;;;;;;;16.84;81.75;99643.75;4995695;28;20207;-82
2022/04/14 07:08:35;;;;;;;12.00;9.35;;;;;;;16.99;81.25;99643.47;4995682;28;20563;-81
2022/04/14 07:11:01;;;;;;;16.70;9.43;;;;;;;17.09;79.96;99652.56;4995676;28;20184;-81
2022/04/14 07:13:29;;;;;;;11.20;9.23;;;;;;;17.15;78.66;99640.31;4995649;28;20218;-81
2022/04/14 07:15:57;;;;;;;13.07;8.90;;;;;;;17.01;79.44;99649.66;4995456;28;20203;-81
2022/04/14 07:18:24;;;;;;;15.13;9.18;;;;;;;17.27;78.11;99647.41;4995654;28;20200;-81
2022/04/14 07:20:51;;;;;;;13.77;9.80;;;;;;;16.95;79.46;99656.44;4995704;28;20645;-81
2022/04/14 07:23:17;;;;;;;12.23;8.30;;;;;;;16.99;79.67;99652.47;4995454;28;20215;-81
2022/04/14 07:25:46;;;;;;;11.00;8.82;;;;;;;17.36;77.78;99651.22;4995564;28;20920;-80
2022/04/14 07:28:13;;;;;;;12.65;9.00;;;;;;;17.68;75.36;99660.22;4995202;28;20204;-81
2022/04/14 07:30:39;;;;;;;10.95;8.30;;;;;;;17.62;75.32;99660.72;4995221;28;20640;-81
2022/04/14 07:33:07;;;;;;;11.13;8.00;;;;;;;17.96;72.51;99656.97;4995449;28;20637;-81
2022/04/14 07:35:34;;;;;;;11.48;7.03;;;;;;;18.15;70.86;99654.31;4995197;28;20210;-81
2022/04/14 07:38:00;;;;;;;10.57;7.30;;;;;;;18.19;70.93;99665.81;4994721;28;20208;-81
2022/04/14 07:40:28;;;;;;;8.05;6.30;;;;;;;18.16;69.72;99669.69;4995982;28;20809;-82
2022/04/14 07:42:56;;;;;;;8.98;5.97;;;;;;;17.91;70.02;99671.00;4994901;28;20209;-81
2022/04/14 07:45:23;;;;;;;12.40;6.20;;;;;;;18.52;67.34;99670.13;4994375;28;20231;-81
2022/04/14 07:47:49;;;;;;;10.23;6.35;;;;;;;18.31;67.43;99675.63;4994511;28;20290;-81
2022/04/14 07:50:19;;;;;;;10.48;6.47;;;;;;;18.18;68.29;99672.25;5014374;28;20297;-81
2022/04/14 07:52:47;;;;;;;7.15;5.05;;;;;;;18.40;66.96;99676.66;5013709;28;20188;-81
2022/04/14 07:55:21;;;;;;;8.05;5.72;;;;;;;18.82;65.34;99680.13;5013751;28;20237;-81
2022/04/14 07:57:48;;;;;;;9.55;5.38;;;;;;;18.94;64.31;99678.13;5013986;28;20199;-81
2022/04/14 08:00:17;;;;;;;7.00;5.60;;;;;;;19.33;61.63;99676.34;5014285;28;20197;-81
2022/04/14 08:02:48;;;;;;;7.75;5.07;;;;;;;19.36;61.09;99676.03;5013826;28;20205;-81
2022/04/14 08:05:15;;;;;;;5.70;4.70;;;;;;;19.01;63.25;99679.31;5014344;28;20681;-81
2022/04/14 08:07:41;;;;;;;5.68;4.75;;;;;;;18.83;64.38;99684.56;5013930;28;20186;-81
2022/04/14 08:10:09;;;;;;;6.22;4.50;;;;;;;18.65;65.01;99686.22;5012604;28;20201;-81
2022/04/14 08:12:35;;;;;;;7.70;4.30;;;;;;;18.87;63.94;99696.94;5014128;28;20678;-81
2022/04/14 08:15:02;;;;;;;5.45;4.25;;;;;;;18.92;63.63;99691.91;5013713;28;20186;-80
2022/04/14 08:17:30;;;;;;;7.80;4.00;;;;;;;18.80;63.63;99684.88;5013987;28;20538;-81
2022/04/14 08:19:57;;;;;;;5.30;3.38;;;;;;;19.16;62.33;99691.53;5013600;28;20210;-81
2022/04/14 08:22:23;;;;;;;5.53;3.90;;;;;;;19.20;61.66;99693.97;5003696;28;20198;-81
2022/04/14 08:24:50;;;;;;;5.75;4.15;;;;;;;19.16;61.88;99699.72;5011440;28;20219;-81
2022/04/14 08:27:18;;;;;;;4.00;3.38;;;;;;;18.83;64.15;99703.66;5009838;28;20286;-81
2022/04/14 08:29:44;;;;;;;6.47;3.50;;;;;;;18.87;64.05;99705.13;4994378;28;20186;-82
2022/04/14 08:32:11;;;;;;;8.40;3.88;;;;;;;19.43;61.31;99700.03;4994343;28;20282;-81
2022/04/14 08:34:40;;;;;;;4.75;3.33;;;;;;;18.58;63.81;99706.88;4994316;28;20203;-81
2022/04/14 08:37:06;;;;;;;6.63;3.60;;;;;;;18.18;67.15;99703.13;4993887;28;20221;-82
2022/04/14 08:39:34;;;;;;;5.03;3.40;;;;;;;18.84;64.02;99705.41;4993841;28;20557;-83
2022/04/14 08:42:09;;;;;;;5.18;3.13;;;;;;;18.73;64.31;99706.34;4996156;28;20237;-85
2022/04/14 08:44:41;;;;;;;4.53;2.92;;;;;;;18.81;64.09;99702.94;4994480;28;20650;-83
2022/04/14 08:47:08;;;;;;;4.40;3.55;;;;;;;18.82;63.83;99704.69;4994046;28;20697;-83
2022/04/14 08:49:35;;;;;;;4.35;3.40;;;;;;;19.08;62.86;99704.16;5000853;28;20201;-83
2022/04/14 08:52:04;;;;;;;7.63;3.60;;;;;;;18.76;64.52;99703.34;5013347;28;20282;-84
2022/04/14 08:54:32;;;;;;;7.20;3.63;;;;;;;18.96;63.64;99707.00;5013541;28;20275;-83
2022/04/14 08:57:00;;;;;;;6.45;3.53;;;;;;;18.63;64.71;99701.84;4974611;28;20192;-83
2022/04/14 08:59:28;;;;;;;5.03;3.38;;;;;;;18.90;63.82;99709.44;4974521;28;20536;-81
2022/04/14 09:01:56;;;;;;;6.32;3.60;;;;;;;19.13;62.50;99710.94;4959936;28;20203;-83
2022/04/14 09:04:22;;;;;;;5.72;3.67;;;;;;;18.98;63.37;99706.03;4954565;28;20248;-83
2022/04/14 09:06:49;;;;;;;6.80;4.27;;;;;;;19.45;61.72;99706.22;4954332;28;20208;-83
2022/04/14 09:09:17;;;;;;;5.70;3.10;;;;;;;19.12;63.02;99709.19;4971858;28;20866;-83
2022/04/14 09:11:44;;;;;;;4.70;3.05;;;;;;;19.52;61.13;99715.56;4974011;28;20436;-84
2022/04/14 09:14:11;;;;;;;4.75;3.15;;;;;;;19.72;60.62;99714.56;4974219;28;20199;-84
2022/04/14 09:16:38;;;;;;;5.18;2.97;;;;;;;20.10;58.32;99711.91;4964714;28;20606;-83
2022/04/14 09:19:05;;;;;;;7.03;3.57;;;;;;;20.37;57.84;99713.84;4954450;28;20631;-83
2022/04/14 09:21:32;;;;;;;7.77;3.70;;;;;;;20.07;58.16;99712.22;4956659;28;20484;-82
2022/04/14 09:23:58;;;;;;;4.90;3.73;;;;;;;20.27;57.30;99710.28;4954263;28;20432;-83
2022/04/14 09:26:27;;;;;;;8.93;3.97;;;;;;;20.14;57.96;99699.69;4954140;28;20490;-83
2022/04/14 09:29:08;;;;;;;5.03;3.73;;;;;;;19.63;60.43;99712.69;4954399;28;20447;-82
2022/04/14 09:31:49;;;;;;;6.03;3.43;;;;;;;19.75;60.21;99703.34;4972391;28;20542;-82
2022/04/14 09:34:18;;;;;;;6.00;3.80;;;;;;;19.59;60.90;99711.25;4973224;28;20435;-84
2022/04/14 09:37:05;;;;;;;5.13;3.80;;;;;;;19.62;61.19;99708.22;4974010;28;20925;-83
2022/04/14 09:39:50;;;;;;;5.93;4.00;;;;;;;19.95;59.90;99711.53;4968364;28;20188;-83
2022/04/14 09:42:18;;;;;;;6.40;4.57;;;;;;;19.79;61.07;99712.97;4954133;28;20433;-84
2022/04/14 09:44:44;;;;;;;5.23;3.87;;;;;;;19.85;60.27;99713.41;4953889;28;20443;-82
2022/04/14 09:47:11;;;;;;;6.30;3.90;;;;;;;20.04;59.56;99713.38;4961277;28;20829;-83
2022/04/14 09:49:41;;;;;;;8.07;4.60;;;;;;;20.04;60.23;99702.44;4973265;28;20451;-82
2022/04/14 09:52:08;;;;;;;5.23;4.60;;;;;;;20.20;59.18;99710.88;4968927;28;20519;-82
2022/04/14 09:54:35;;;;;;;6.60;4.33;;;;;;;20.44;58.04;99712.22;4962053;28;20978;-82
2022/04/14 09:57:01;;;;;;;4.40;3.60;;;;;;;20.78;56.30;99718.03;5001948;28;20995;-85
2022/04/14 09:59:32;;;;;;;4.57;3.90;;;;;;;20.80;55.97;99718.75;4997901;28;20867;-81
2022/04/14 10:02:10;;;;;;;8.67;3.90;;;;;;;21.13;54.16;99715.53;4997622;28;20434;-82
2022/04/14 10:04:38;;;;;;;6.13;4.23;;;;;;;21.00;54.35;99718.63;5001681;28;20603;-80
2022/04/14 10:07:08;;;;;;;4.93;4.43;;;;;;;21.31;53.95;99713.66;5010609;28;20473;-83
2022/04/14 10:09:35;;;;;;;5.70;4.70;;;;;;;21.46;52.65;99716.78;4999324;28;21031;-80
2022/04/14 10:12:02;;;;;;;7.20;3.83;;;;;;;20.90;55.21;99707.75;5012395;28;20422;-83
2022/04/14 10:14:30;;;;;;;7.93;3.97;;;;;;;21.91;52.21;99706.69;5004136;28;20442;-83
2022/04/14 10:17:02;;;;;;;6.50;4.23;;;;;;;22.78;48.79;99702.09;4992363;28;20446;-82
2022/04/14 10:19:30;;;;;;;8.87;4.23;;;;;;;22.64;48.13;99706.34;4994028;28;20437;-84
2022/04/14 10:21:56;;;;;;;4.57;3.53;;;;;;;22.27;49.31;99700.13;4999163;28;20496;-82
2022/04/14 10:24:25;;;;;;;4.50;3.87;;;;;;;22.06;49.82;99692.22;5004068;28;20448;-82
2022/04/14 10:26:55;;;;;;;12.40;4.43;;;;;;;22.29;49.60;99708.19;4997188;28;20572;-82
2022/04/14 10:29:22;;;;;;;6.80;4.13;;;;;;;22.83;47.97;99705.22;5003954;28;20434;-82
2022/04/14 10:31:54;;;;;;;5.57;3.87;;;;;;;22.36;48.98;99708.41;5003399;28;20437;-82
2022/04/14 10:34:22;;;;;;;5.73;4.23;;;;;;;22.21;49.44;99702.63;5005985;28;20437;-80
2022/04/14 10:36:50;;;;;;;8.30;4.83;;;;;;;21.90;50.18;99703.09;5011353;28;20469;-79
2022/04/14 10:39:17;;;;;;;6.77;4.30;;;;;;;22.07;49.86;99704.09;5011566;28;20441;-79
2022/04/14 10:41:49;;;;;;;3.73;3.33;;;;;;;22.21;49.47;99706.25;5011194;28;20438;-81
2022/04/14 10:44:20;;;;;;;4.60;3.40;;;;;;;22.46;48.93;99700.94;5011396;28;20433;-80
2022/04/14 10:46:50;;;;;;;4.80;3.80;;;;;;;21.85;50.17;99705.47;5010175;28;20560;-80
2022/04/14 10:49:23;;;;;;;4.80;3.93;;;;;;;21.65;51.47;99702.03;4996963;28;20442;-80
2022/04/14 10:51:52;;;;;;;10.10;4.53;;;;;;;21.21;52.91;99710.13;5011957;28;20763;-80
2022/04/14 10:54:19;;;;;;;7.43;4.40;;;;;;;21.11;53.75;99706.59;5011267;28;20430;-81
2022/04/14 10:56:49;;;;;;;5.37;4.10;;;;;;;21.41;52.54;99706.28;5001363;28;20980;-80
2022/04/14 10:59:17;;;;;;;8.17;4.13;;;;;;;21.73;51.72;99704.84;4999362;28;20903;-80
2022/04/14 11:02:04;;;;;;;6.43;4.23;;;;;;;21.71;51.63;99693.19;5019649;28;20453;-82
2022/04/14 11:04:51;;;;;;;5.80;3.37;;;;;;;21.97;50.74;99693.19;5021267;28;20446;-84
2022/04/14 11:07:21;;;;;;;7.40;4.67;;;;;;;22.62;48.56;99701.00;5009401;28;20975;-83
2022/04/14 11:09:57;;;;;;;6.80;3.60;;;;;;;23.34;46.57;99697.84;5010858;28;20489;-79
2022/04/14 11:12:25;;;;;;;8.60;3.97;;;;;;;23.09;47.31;99700.53;5011449;28;20441;-81
2022/04/14 11:14:57;;;;;;;7.23;4.27;;;;;;;23.19;46.41;99694.03;5011272;28;20429;-80
2022/04/14 11:17:52;;;;;;;9.60;4.67;;;;;;;23.35;46.08;99698.69;5011311;28;20424;-82
2022/04/14 11:20:22;;;;;;;3.47;2.70;;;;;;;23.05;46.53;99698.28;5008429;28;20452;-80
2022/04/14 11:23:07;;;;;;;9.53;5.57;;;;;;;22.86;47.54;99693.88;5011113;28;20433;-82